Time;durP1;ratioP1;P1;durP2;ratioP2;P2;SDS_P1;SDS_P2;PMS_P1;PMS_P2;Temp;Humidity;BMP_temperature;BMP_pressure;BME280_temperature;BME280_humidity;BME280_pressure;Samples;Min_cycle;Max_cycle;Signal;HPM_P1;HPM_P2
2023/03/14 00:01:29;;;;;;;1.63;0.70;;;8.50;99.90;;;;;;5030432;28;20268;-66
2023/03/14 00:03:55;;;;;;;1.30;0.60;;;8.40;99.90;;;;;;5030402;28;20561;-66
2023/03/14 00:06:21;;;;;;;1.80;0.83;;;8.50;99.90;;;;;;5030831;28;20187;-66
2023/03/14 00:08:47;;;;;;;1.17;0.50;;;8.50;99.90;;;;;;5032302;28;20186;-66
2023/03/14 00:11:18;;;;;;;1.20;0.50;;;8.50;99.90;;;;;;5030875;28;20669;-66
2023/03/14 00:13:47;;;;;;;1.10;0.40;;;8.50;99.90;;;;;;5029943;28;20425;-66
2023/03/14 00:16:13;;;;;;;1.97;0.70;;;8.50;99.90;;;;;;5030534;28;20409;-66
2023/03/14 00:18:39;;;;;;;1.50;0.50;;;8.50;99.90;;;;;;5030544;28;20456;-66
2023/03/14 00:21:07;;;;;;;1.20;0.50;;;8.50;99.90;;;;;;5029172;28;20186;-66
2023/03/14 00:23:34;;;;;;;1.20;0.60;;;8.50;99.90;;;;;;5029917;28;20449;-66
2023/03/14 00:26:01;;;;;;;1.30;0.53;;;8.40;99.90;;;;;;5030601;28;20412;-66
2023/03/14 00:28:27;;;;;;;1.10;0.50;;;8.50;99.90;;;;;;5030244;28;20445;-66
2023/03/14 00:30:53;;;;;;;1.40;0.53;;;8.50;99.90;;;;;;5030487;28;20413;-66
2023/03/14 00:33:20;;;;;;;1.50;0.60;;;8.50;99.90;;;;;;5029452;28;20437;-66
2023/03/14 00:35:57;;;;;;;1.50;0.67;;;8.50;99.90;;;;;;5030340;28;20551;-66
2023/03/14 00:38:24;;;;;;;1.10;0.50;;;8.50;99.90;;;;;;5029566;28;20917;-66
2023/03/14 00:40:50;;;;;;;1.20;0.60;;;8.50;99.90;;;;;;5030393;28;20424;-66
2023/03/14 00:43:16;;;;;;;1.27;0.70;;;8.50;99.90;;;;;;5029519;28;20425;-66
2023/03/14 00:45:41;;;;;;;1.50;0.70;;;8.50;99.90;;;;;;5028857;28;20439;-66
2023/03/14 00:48:07;;;;;;;1.60;0.70;;;8.50;99.90;;;;;;5030158;28;20665;-66
2023/03/14 00:50:32;;;;;;;3.93;0.60;;;8.50;99.90;;;;;;5030594;28;20198;-66
2023/03/14 00:52:58;;;;;;;1.10;0.50;;;8.50;99.90;;;;;;5029619;28;20610;-66
2023/03/14 00:55:24;;;;;;;1.43;0.60;;;8.50;99.90;;;;;;5030179;28;20206;-66
2023/03/14 00:57:50;;;;;;;1.20;0.50;;;8.50;99.90;;;;;;5029974;28;20178;-66
2023/03/14 01:00:15;;;;;;;1.10;0.50;;;8.50;99.90;;;;;;5030116;28;20244;-66
2023/03/14 01:02:41;;;;;;;1.37;0.50;;;8.50;99.90;;;;;;5029895;28;20186;-66
2023/03/14 01:05:10;;;;;;;1.10;0.50;;;8.50;99.90;;;;;;5030042;28;20186;-66
2023/03/14 01:07:35;;;;;;;1.10;0.40;;;8.50;99.90;;;;;;5030312;28;20174;-67
2023/03/14 01:10:01;;;;;;;1.10;0.50;;;8.50;99.90;;;;;;5029858;28;20516;-66
2023/03/14 01:12:27;;;;;;;1.10;0.50;;;8.50;99.90;;;;;;5029563;28;20582;-66
2023/03/14 01:14:53;;;;;;;1.80;0.60;;;8.50;99.90;;;;;;5029728;28;20207;-67
2023/03/14 01:17:18;;;;;;;1.30;0.60;;;8.50;99.90;;;;;;5030344;28;20811;-65
2023/03/14 01:19:44;;;;;;;1.67;0.50;;;8.50;99.90;;;;;;5032687;28;20205;-65
2023/03/14 01:22:09;;;;;;;1.10;0.40;;;8.50;99.90;;;;;;5033399;28;20232;-65
2023/03/14 01:24:37;;;;;;;1.20;0.50;;;8.60;99.90;;;;;;5033240;28;20210;-65
2023/03/14 01:27:02;;;;;;;2.20;0.60;;;8.60;99.90;;;;;;5033807;28;20244;-65
2023/03/14 01:29:29;;;;;;;1.10;0.50;;;8.60;99.90;;;;;;5034096;28;20889;-64
2023/03/14 01:31:54;;;;;;;1.10;0.40;;;8.50;99.90;;;;;;5033112;28;20178;-64
2023/03/14 01:34:20;;;;;;;1.40;0.50;;;8.50;99.90;;;;;;5033967;28;20499;-64
2023/03/14 01:36:45;;;;;;;1.50;0.60;;;8.50;99.90;;;;;;5034196;28;20589;-64
2023/03/14 01:39:12;;;;;;;3.30;0.50;;;8.50;99.90;;;;;;5033701;28;20182;-64
2023/03/14 01:41:38;;;;;;;1.13;0.50;;;8.50;99.90;;;;;;5033733;28;20174;-64
2023/03/14 01:44:04;;;;;;;1.40;0.60;;;8.40;99.90;;;;;;5033553;28;20852;-64
2023/03/14 01:46:46;;;;;;;1.50;0.70;;;8.40;99.90;;;;;;5033942;28;20423;-64
2023/03/14 01:49:22;;;;;;;1.30;0.50;;;8.40;99.90;;;;;;5033788;28;20190;-64
2023/03/14 01:52:16;;;;;;;2.07;0.73;;;8.40;99.90;;;;;;5033457;28;20772;-64
2023/03/14 01:55:03;;;;;;;1.10;0.40;;;8.30;99.90;;;;;;5022150;28;20468;-64
2023/03/14 01:57:36;;;;;;;1.10;0.50;;;8.30;99.90;;;;;;5031433;28;20503;-64
2023/03/14 02:00:13;;;;;;;3.53;0.70;;;8.30;99.90;;;;;;5033460;28;20433;-64
2023/03/14 02:02:42;;;;;;;1.20;0.60;;;8.30;99.90;;;;;;5019405;28;20417;-64
2023/03/14 02:05:10;;;;;;;1.30;0.53;;;8.30;99.90;;;;;;5032884;28;20777;-64
2023/03/14 02:07:54;;;;;;;1.10;0.50;;;8.30;99.90;;;;;;5032764;28;20474;-64
2023/03/14 02:10:24;;;;;;;1.10;0.50;;;8.30;99.90;;;;;;5032667;28;20417;-64
2023/03/14 02:12:52;;;;;;;1.20;0.50;;;8.30;99.90;;;;;;5032131;28;20429;-64
2023/03/14 02:15:17;;;;;;;1.07;0.40;;;8.30;99.90;;;;;;5032377;28;20487;-64
2023/03/14 02:17:45;;;;;;;1.20;0.50;;;8.30;99.90;;;;;;5032645;28;20424;-64
2023/03/14 02:20:28;;;;;;;1.20;0.50;;;8.20;99.90;;;;;;5032596;28;20182;-64
2023/03/14 02:22:54;;;;;;;1.10;0.50;;;8.30;99.90;;;;;;5032115;28;20421;-64
2023/03/14 02:25:25;;;;;;;2.63;0.77;;;8.20;99.90;;;;;;5018832;28;20774;-64
2023/03/14 02:27:51;;;;;;;1.10;0.40;;;8.20;99.90;;;;;;5031895;28;20186;-64
2023/03/14 02:30:24;;;;;;;1.60;0.67;;;8.20;99.90;;;;;;5031449;28;20432;-64
2023/03/14 02:32:55;;;;;;;2.33;0.70;;;8.20;99.90;;;;;;5031831;28;20240;-64
2023/03/14 02:35:27;;;;;;;1.10;0.50;;;8.20;99.90;;;;;;5032246;28;20460;-64
2023/03/14 02:38:00;;;;;;;1.30;0.60;;;8.20;99.90;;;;;;5032363;28;20417;-64
2023/03/14 02:40:26;;;;;;;1.30;0.60;;;8.20;99.90;;;;;;5031750;28;20432;-64
2023/03/14 02:42:51;;;;;;;1.00;0.40;;;8.20;99.90;;;;;;5031447;28;20413;-64
2023/03/14 02:45:17;;;;;;;1.20;0.70;;;8.20;99.90;;;;;;5031861;28;20636;-65
2023/03/14 02:47:46;;;;;;;1.30;0.50;;;8.20;99.90;;;;;;5030545;28;20264;-65
2023/03/14 02:50:16;;;;;;;2.63;0.70;;;8.20;99.90;;;;;;5032280;28;20248;-65
2023/03/14 02:52:42;;;;;;;1.10;0.40;;;8.10;99.90;;;;;;5031270;28;20424;-64
2023/03/14 02:55:08;;;;;;;1.20;0.50;;;8.10;99.90;;;;;;5031854;28;20831;-64
2023/03/14 02:57:33;;;;;;;1.10;0.40;;;8.10;99.90;;;;;;5031401;28;20183;-64
2023/03/14 03:00:00;;;;;;;1.10;0.40;;;8.00;99.90;;;;;;5032060;28;20502;-64
2023/03/14 03:02:26;;;;;;;1.30;0.70;;;8.00;99.90;;;;;;5030943;28;20194;-65
2023/03/14 03:04:52;;;;;;;1.90;0.60;;;8.00;99.90;;;;;;5031852;28;20429;-64
2023/03/14 03:07:19;;;;;;;2.47;0.80;;;8.00;99.90;;;;;;5031162;28;20528;-65
2023/03/14 03:09:44;;;;;;;1.47;0.60;;;8.00;99.90;;;;;;5031468;28;20261;-65
2023/03/14 03:12:10;;;;;;;1.20;0.53;;;8.00;99.90;;;;;;5030416;28;20504;-65
2023/03/14 03:14:37;;;;;;;4.50;0.83;;;8.00;99.90;;;;;;5031692;28;20845;-64
2023/03/14 03:17:04;;;;;;;1.10;0.50;;;8.00;99.90;;;;;;5031149;28;20178;-64
2023/03/14 03:19:30;;;;;;;1.60;0.60;;;8.00;99.90;;;;;;5031446;28;20451;-64
2023/03/14 03:21:56;;;;;;;1.10;0.50;;;7.90;99.90;;;;;;5030653;28;20429;-64
2023/03/14 03:24:21;;;;;;;2.63;0.93;;;7.90;99.90;;;;;;5031231;28;20437;-64
2023/03/14 03:26:47;;;;;;;3.23;1.20;;;7.90;99.90;;;;;;5031229;28;20301;-63
2023/03/14 03:29:12;;;;;;;5.00;0.83;;;7.90;99.90;;;;;;5030666;28;20189;-64
2023/03/14 03:31:39;;;;;;;5.90;0.80;;;7.80;99.90;;;;;;5030580;28;20189;-63
2023/03/14 03:34:04;;;;;;;1.53;0.67;;;7.80;99.90;;;;;;5030676;28;20182;-63
2023/03/14 03:36:30;;;;;;;1.93;0.97;;;7.70;99.90;;;;;;5030643;28;20424;-63
2023/03/14 03:38:55;;;;;;;1.50;0.57;;;7.70;99.90;;;;;;5030648;28;20693;-63
2023/03/14 03:41:21;;;;;;;1.97;0.70;;;7.70;99.90;;;;;;5031334;28;20514;-64
2023/03/14 03:43:47;;;;;;;11.00;1.20;;;7.70;99.90;;;;;;5030758;28;20182;-65
2023/03/14 03:46:12;;;;;;;1.70;0.90;;;7.70;99.90;;;;;;5030966;28;20538;-65
2023/03/14 03:48:38;;;;;;;1.37;0.70;;;7.70;99.90;;;;;;5031245;28;20200;-65
2023/03/14 03:51:04;;;;;;;1.70;0.60;;;7.70;99.90;;;;;;5030515;28;20233;-64
2023/03/14 03:53:29;;;;;;;1.30;0.57;;;7.70;99.90;;;;;;5030441;28;20248;-65
2023/03/14 03:55:55;;;;;;;5.57;0.90;;;7.70;99.90;;;;;;5030449;28;20224;-65
2023/03/14 03:58:20;;;;;;;1.47;0.57;;;7.60;99.90;;;;;;5030328;28;20182;-65
2023/03/14 04:00:46;;;;;;;1.40;0.73;;;7.60;99.90;;;;;;5030403;28;20204;-65
2023/03/14 04:03:12;;;;;;;1.27;0.60;;;7.60;99.90;;;;;;5030328;28;20190;-65
2023/03/14 04:05:37;;;;;;;6.00;1.10;;;7.50;99.90;;;;;;5029184;28;20305;-65
2023/03/14 04:08:04;;;;;;;1.93;0.70;;;7.60;99.90;;;;;;5030533;28;20182;-66
2023/03/14 04:10:30;;;;;;;1.90;0.70;;;7.60;99.90;;;;;;5030499;28;20185;-65
2023/03/14 04:12:55;;;;;;;2.13;0.97;;;7.50;99.90;;;;;;5029672;28;20428;-65
2023/03/14 04:15:21;;;;;;;3.03;0.83;;;7.60;99.90;;;;;;5030250;28;20720;-66
2023/03/14 04:17:47;;;;;;;10.43;0.70;;;7.60;99.90;;;;;;5030498;28;20191;-65
2023/03/14 04:20:12;;;;;;;1.70;0.80;;;7.60;99.90;;;;;;5030671;28;20181;-66
2023/03/14 04:22:39;;;;;;;6.87;1.57;;;7.60;99.90;;;;;;5029943;28;20174;-66
2023/03/14 04:25:05;;;;;;;1.57;0.63;;;7.50;99.90;;;;;;5030477;28;20186;-66
2023/03/14 04:27:31;;;;;;;1.27;0.50;;;7.50;99.90;;;;;;5029992;28;20457;-66
2023/03/14 04:29:56;;;;;;;1.50;0.80;;;7.50;99.90;;;;;;5030511;28;20421;-66
2023/03/14 04:32:22;;;;;;;2.03;0.97;;;7.50;99.90;;;;;;5030064;28;20215;-66
2023/03/14 04:34:48;;;;;;;2.57;0.93;;;7.60;99.90;;;;;;5030445;28;20564;-66
2023/03/14 04:37:13;;;;;;;7.33;1.10;;;7.60;99.90;;;;;;5030519;28;20662;-66
2023/03/14 04:39:39;;;;;;;3.97;1.00;;;7.60;99.90;;;;;;5030243;28;20236;-66
2023/03/14 04:42:05;;;;;;;3.17;0.80;;;7.60;99.90;;;;;;5029697;28;20179;-66
2023/03/14 04:44:31;;;;;;;1.40;0.60;;;7.50;99.90;;;;;;5030251;28;20174;-66
2023/03/14 04:46:56;;;;;;;2.17;0.80;;;7.50;99.90;;;;;;5030448;28;20435;-66
2023/03/14 04:49:23;;;;;;;3.73;0.80;;;7.60;99.90;;;;;;5030458;28;20178;-66
2023/03/14 04:51:50;;;;;;;2.13;0.60;;;7.50;99.90;;;;;;5030069;28;20782;-66
2023/03/14 04:54:16;;;;;;;5.03;0.80;;;7.40;99.90;;;;;;5031944;28;20421;-66
2023/03/14 04:56:42;;;;;;;1.70;0.80;;;7.50;99.90;;;;;;5034531;28;20944;-66
2023/03/14 04:59:08;;;;;;;1.83;0.80;;;7.40;99.90;;;;;;5033512;28;20178;-66
2023/03/14 05:01:33;;;;;;;4.30;1.00;;;7.40;99.90;;;;;;5033609;28;20673;-66
2023/03/14 05:03:59;;;;;;;3.77;0.90;;;7.50;99.90;;;;;;5028852;28;20433;-66
2023/03/14 05:06:25;;;;;;;1.77;0.70;;;7.50;99.90;;;;;;5033942;28;20206;-66
2023/03/14 05:08:50;;;;;;;1.93;0.50;;;7.50;99.90;;;;;;5033959;28;20258;-66
2023/03/14 05:11:16;;;;;;;4.50;1.33;;;7.40;99.90;;;;;;5030599;28;20697;-66
2023/03/14 05:13:42;;;;;;;1.33;0.57;;;7.40;99.90;;;;;;5030209;28;20232;-66
2023/03/14 05:16:10;;;;;;;12.10;0.70;;;7.40;99.90;;;;;;5034048;28;20252;-66
2023/03/14 05:18:35;;;;;;;2.60;0.80;;;7.40;99.90;;;;;;5033998;28;20245;-66
2023/03/14 05:21:01;;;;;;;2.47;0.60;;;7.40;99.90;;;;;;5033992;28;20504;-66
2023/03/14 05:23:27;;;;;;;1.30;0.57;;;7.40;99.90;;;;;;5033039;28;20186;-66
2023/03/14 05:25:53;;;;;;;1.10;0.50;;;7.40;99.90;;;;;;5033434;28;20421;-67
2023/03/14 05:28:19;;;;;;;1.60;0.73;;;7.40;99.90;;;;;;5033085;28;20182;-66
2023/03/14 05:30:44;;;;;;;2.03;0.70;;;7.40;99.90;;;;;;5033562;28;20221;-66
2023/03/14 05:33:10;;;;;;;4.60;1.17;;;7.50;99.90;;;;;;5032775;28;20194;-66
2023/03/14 05:35:36;;;;;;;1.30;0.50;;;7.60;99.90;;;;;;5033592;28;20229;-67
2023/03/14 05:38:01;;;;;;;3.53;0.90;;;7.70;99.90;;;;;;5033105;28;20179;-66
2023/03/14 05:40:27;;;;;;;1.13;0.57;;;7.60;99.90;;;;;;5033299;28;20821;-67
2023/03/14 05:42:52;;;;;;;5.83;0.90;;;7.60;99.90;;;;;;5032364;28;20258;-66
2023/03/14 05:45:18;;;;;;;1.47;0.70;;;7.60;99.90;;;;;;5033557;28;20304;-67
2023/03/14 05:47:44;;;;;;;4.47;0.80;;;7.60;99.90;;;;;;5032885;28;20218;-66
2023/03/14 05:50:10;;;;;;;4.40;0.70;;;7.60;99.90;;;;;;5033508;28;20182;-66
2023/03/14 05:52:36;;;;;;;1.10;0.50;;;7.60;99.90;;;;;;5032318;28;20189;-63
2023/03/14 05:55:02;;;;;;;1.20;0.60;;;7.60;99.90;;;;;;5032873;28;20468;-64
2023/03/14 05:57:28;;;;;;;1.10;0.40;;;7.60;99.90;;;;;;5032804;28;20540;-64
2023/03/14 05:59:53;;;;;;;2.63;0.73;;;7.60;99.90;;;;;;5032802;28;20437;-64
2023/03/14 06:02:19;;;;;;;1.90;0.60;;;7.60;99.90;;;;;;5032812;28;20182;-64
2023/03/14 06:04:44;;;;;;;1.80;0.83;;;7.70;99.90;;;;;;5031380;28;20179;-64
2023/03/14 06:07:10;;;;;;;2.90;0.90;;;7.60;99.90;;;;;;5026582;28;20521;-64
2023/03/14 06:09:36;;;;;;;6.33;1.00;;;7.70;99.90;;;;;;5032785;28;20190;-64
2023/03/14 06:12:01;;;;;;;1.63;0.70;;;7.60;99.90;;;;;;5031680;28;20244;-64
2023/03/14 06:14:27;;;;;;;1.60;0.70;;;7.70;99.90;;;;;;5031594;28;20214;-64
2023/03/14 06:16:53;;;;;;;2.90;0.90;;;7.70;99.90;;;;;;5032646;28;20206;-65
2023/03/14 06:19:19;;;;;;;1.20;0.50;;;7.70;99.90;;;;;;5032493;28;20174;-64
2023/03/14 06:21:45;;;;;;;1.60;0.73;;;7.70;99.90;;;;;;5032069;28;20419;-66
2023/03/14 06:24:11;;;;;;;1.50;0.63;;;7.80;99.90;;;;;;5032774;28;20497;-66
2023/03/14 06:26:36;;;;;;;3.40;0.50;;;7.80;99.90;;;;;;5031895;28;20266;-65
2023/03/14 06:29:03;;;;;;;1.70;0.60;;;7.80;99.90;;;;;;5029460;28;20555;-65
2023/03/14 06:31:32;;;;;;;1.97;0.60;;;7.80;99.90;;;;;;5031282;28;20195;-65
2023/03/14 06:33:58;;;;;;;2.10;0.60;;;7.90;99.90;;;;;;5030852;28;20413;-65
2023/03/14 06:36:23;;;;;;;6.33;0.90;;;7.90;99.90;;;;;;5030784;28;20906;-66
2023/03/14 06:38:49;;;;;;;1.20;0.53;;;7.90;99.90;;;;;;5030798;28;20706;-65
2023/03/14 06:41:14;;;;;;;1.70;0.70;;;8.00;99.90;;;;;;5030407;28;20547;-66
2023/03/14 06:43:40;;;;;;;2.43;0.90;;;8.10;99.90;;;;;;5030159;28;20513;-65
2023/03/14 06:46:06;;;;;;;3.13;0.83;;;8.20;99.90;;;;;;5031058;28;20256;-65
2023/03/14 06:48:32;;;;;;;5.43;1.47;;;8.10;99.90;;;;;;5030781;28;20190;-65
2023/03/14 06:50:57;;;;;;;4.17;1.00;;;8.20;99.90;;;;;;5031110;28;20186;-65
2023/03/14 06:53:23;;;;;;;6.03;1.20;;;8.30;99.90;;;;;;5030317;28;20219;-65
2023/03/14 06:55:49;;;;;;;1.40;0.60;;;8.40;99.90;;;;;;5030489;28;20214;-64
2023/03/14 06:58:15;;;;;;;5.93;1.20;;;8.60;99.90;;;;;;5030598;28;20186;-65
2023/03/14 07:00:40;;;;;;;5.60;1.77;;;8.50;99.90;;;;;;5030220;28;20340;-65
2023/03/14 07:03:06;;;;;;;2.47;0.80;;;8.50;99.90;;;;;;5029468;28;20425;-65
2023/03/14 07:05:32;;;;;;;12.50;2.13;;;8.60;99.90;;;;;;5029601;28;20178;-65
2023/03/14 07:07:57;;;;;;;5.77;1.00;;;8.70;99.90;;;;;;5029961;28;20190;-65
2023/03/14 07:10:23;;;;;;;2.00;0.70;;;8.80;99.90;;;;;;5029004;28;20197;-64
2023/03/14 07:12:49;;;;;;;9.97;0.60;;;9.00;99.90;;;;;;5029270;28;20193;-65
2023/03/14 07:15:14;;;;;;;2.33;0.57;;;9.10;99.90;;;;;;5027649;28;20670;-65
2023/03/14 07:17:40;;;;;;;2.07;0.50;;;9.20;99.90;;;;;;5028634;28;20225;-65
2023/03/14 07:20:07;;;;;;;1.10;0.50;;;9.40;99.90;;;;;;5029720;28;20179;-65
2023/03/14 07:22:33;;;;;;;1.20;0.60;;;9.40;99.90;;;;;;5028928;28;20264;-65
2023/03/14 07:24:58;;;;;;;1.57;0.60;;;9.60;99.90;;;;;;5036979;28;20512;-65
2023/03/14 07:27:24;;;;;;;5.20;0.90;;;9.70;99.90;;;;;;5029336;28;20189;-65
2023/03/14 07:29:50;;;;;;;1.37;0.57;;;9.80;99.90;;;;;;5029513;28;20190;-64
2023/03/14 07:32:16;;;;;;;2.90;1.10;;;9.90;99.90;;;;;;5028810;28;20696;-64
2023/03/14 07:34:42;;;;;;;2.60;0.60;;;9.90;99.90;;;;;;5030211;28;20213;-64
2023/03/14 07:37:08;;;;;;;1.50;0.60;;;10.10;99.90;;;;;;5029985;28;20417;-67
2023/03/14 07:39:34;;;;;;;3.00;0.70;;;10.00;99.90;;;;;;5029563;28;20836;-67
2023/03/14 07:42:00;;;;;;;2.00;0.73;;;10.00;99.90;;;;;;5028528;28;20182;-64
2023/03/14 07:44:25;;;;;;;2.53;0.77;;;10.30;99.90;;;;;;5028864;28;20417;-65
2023/03/14 07:46:51;;;;;;;1.20;0.60;;;10.60;99.90;;;;;;5029635;28;20212;-64
2023/03/14 07:49:17;;;;;;;1.80;0.80;;;11.00;99.90;;;;;;5029150;28;20256;-65
2023/03/14 07:51:43;;;;;;;2.27;0.60;;;11.30;99.90;;;;;;5028846;28;20186;-65
2023/03/14 07:54:10;;;;;;;1.50;0.50;;;11.10;99.90;;;;;;5029294;28;20178;-65
2023/03/14 07:56:35;;;;;;;4.87;0.77;;;11.00;99.90;;;;;;5029255;28;20504;-66
2023/03/14 07:59:01;;;;;;;1.20;0.50;;;11.20;99.90;;;;;;5028697;28;20533;-65
2023/03/14 08:01:27;;;;;;;4.60;1.27;;;11.60;99.90;;;;;;5028668;28;20202;-65
2023/03/14 08:03:52;;;;;;;1.57;0.60;;;11.70;99.90;;;;;;5029035;28;20220;-66
2023/03/14 08:06:18;;;;;;;1.30;0.60;;;11.70;99.90;;;;;;5029099;28;20186;-66
2023/03/14 08:08:43;;;;;;;6.73;0.60;;;11.30;99.90;;;;;;5032143;28;20187;-66
2023/03/14 08:11:09;;;;;;;1.27;0.50;;;11.10;99.90;;;;;;5029325;28;20490;-66
2023/03/14 08:13:36;;;;;;;6.20;0.70;;;11.30;99.90;;;;;;5027021;28;20260;-66
2023/03/14 08:16:02;;;;;;;1.30;0.50;;;11.80;99.90;;;;;;5029158;28;20210;-66
2023/03/14 08:18:27;;;;;;;2.03;0.80;;;12.40;99.20;;;;;;5028561;28;20840;-66
2023/03/14 08:20:53;;;;;;;1.60;0.60;;;12.80;97.80;;;;;;5029084;28;20181;-65
2023/03/14 08:23:18;;;;;;;1.20;0.50;;;13.40;98.40;;;;;;5028534;28;20174;-65
2023/03/14 08:25:44;;;;;;;1.57;0.50;;;13.70;96.50;;;;;;5035724;28;20631;-66
2023/03/14 08:28:10;;;;;;;1.70;0.60;;;14.00;96.10;;;;;;5029428;28;20261;-66
2023/03/14 08:30:35;;;;;;;3.00;0.73;;;13.80;95.90;;;;;;5033600;28;20293;-66
2023/03/14 08:33:01;;;;;;;1.20;0.50;;;13.10;95.90;;;;;;5032667;28;20190;-66
2023/03/14 08:35:27;;;;;;;1.20;0.40;;;12.60;97.00;;;;;;5033237;28;20655;-67
2023/03/14 08:37:53;;;;;;;1.30;0.57;;;12.00;97.50;;;;;;5032776;28;20220;-68
2023/03/14 08:40:19;;;;;;;1.73;0.70;;;11.70;98.60;;;;;;5032636;28;20777;-66
2023/03/14 08:42:45;;;;;;;1.20;0.40;;;11.40;98.90;;;;;;5031777;28;20599;-66
2023/03/14 08:45:13;;;;;;;1.30;0.50;;;11.20;99.50;;;;;;5032707;28;20459;-67
2023/03/14 08:47:39;;;;;;;1.40;0.50;;;11.00;99.90;;;;;;5032156;28;20266;-66
2023/03/14 08:50:06;;;;;;;1.97;0.70;;;10.90;99.90;;;;;;5032400;28;20499;-66
2023/03/14 08:52:32;;;;;;;1.80;0.57;;;10.60;99.90;;;;;;5031297;28;20179;-67
2023/03/14 08:54:58;;;;;;;1.27;0.60;;;10.40;99.90;;;;;;5032455;28;20951;-67
2023/03/14 08:57:27;;;;;;;1.20;0.50;;;10.30;99.90;;;;;;5031822;28;20421;-66
2023/03/14 08:59:55;;;;;;;2.17;0.50;;;10.30;99.90;;;;;;5032620;28;21136;-65
2023/03/14 09:02:21;;;;;;;1.20;0.50;;;10.10;99.90;;;;;;5032000;28;20451;-65
2023/03/14 09:04:47;;;;;;;1.30;0.50;;;10.00;99.90;;;;;;5032540;28;20421;-65
2023/03/14 09:07:14;;;;;;;1.10;0.40;;;9.90;99.90;;;;;;5031924;28;20436;-66
2023/03/14 09:09:39;;;;;;;3.00;0.70;;;9.70;99.90;;;;;;5032532;28;20418;-65
2023/03/14 09:12:05;;;;;;;1.20;0.50;;;9.60;99.90;;;;;;5031489;28;20463;-65
2023/03/14 09:14:31;;;;;;;1.10;0.40;;;9.60;99.90;;;;;;5031743;28;20326;-66
2023/03/14 09:16:57;;;;;;;1.10;0.40;;;9.60;99.90;;;;;;5032443;28;20525;-67
2023/03/14 09:19:23;;;;;;;1.20;0.60;;;9.70;99.90;;;;;;5031927;28;20471;-67
2023/03/14 09:21:49;;;;;;;1.20;0.60;;;9.70;99.90;;;;;;5031385;28;20233;-66
2023/03/14 09:24:15;;;;;;;3.00;0.73;;;9.80;99.90;;;;;;5037471;28;20205;-67
2023/03/14 09:26:41;;;;;;;1.10;0.50;;;9.80;99.90;;;;;;5033346;28;20281;-67
2023/03/14 09:29:07;;;;;;;1.20;0.50;;;9.80;99.90;;;;;;5031258;28;20419;-66
2023/03/14 09:31:33;;;;;;;4.60;0.60;;;9.90;99.90;;;;;;5031277;28;20225;-67
2023/03/14 09:33:59;;;;;;;1.20;0.50;;;9.90;99.90;;;;;;5031615;28;20960;-66
2023/03/14 09:36:24;;;;;;;1.20;0.47;;;10.00;99.90;;;;;;5031799;28;20202;-66
2023/03/14 09:38:50;;;;;;;1.73;0.50;;;10.20;99.90;;;;;;5031780;28;20265;-65
2023/03/14 09:41:15;;;;;;;1.10;0.40;;;10.30;99.90;;;;;;5030891;28;20225;-67
2023/03/14 09:43:43;;;;;;;1.40;0.60;;;10.40;99.90;;;;;;5030880;28;20741;-68
2023/03/14 09:46:10;;;;;;;1.30;0.60;;;10.40;99.90;;;;;;5031611;28;20186;-67
2023/03/14 09:48:36;;;;;;;1.57;0.57;;;10.40;99.90;;;;;;5031332;28;20447;-67
2023/03/14 09:51:11;;;;;;;1.20;0.50;;;10.30;99.90;;;;;;5031496;28;20425;-67
2023/03/14 09:53:44;;;;;;;1.10;0.40;;;10.50;99.90;;;;;;5031134;28;20235;-67
2023/03/14 09:56:30;;;;;;;1.97;0.60;;;10.50;99.90;;;;;;5028911;28;20917;-67
2023/03/14 09:58:59;;;;;;;1.10;0.40;;;10.60;99.90;;;;;;5031203;28;21003;-68
2023/03/14 10:01:28;;;;;;;1.20;0.50;;;10.60;99.90;;;;;;5031704;28;20444;-67
2023/03/14 10:04:00;;;;;;;1.20;0.50;;;10.50;99.90;;;;;;5031540;28;20459;-67
2023/03/14 10:06:30;;;;;;;4.30;0.50;;;10.60;99.90;;;;;;5039380;28;20452;-67
2023/03/14 10:08:57;;;;;;;1.43;0.50;;;10.80;99.90;;;;;;5014709;28;20512;-67
2023/03/14 10:11:23;;;;;;;2.33;0.53;;;11.10;99.90;;;;;;5029024;28;20424;-67
2023/03/14 10:14:03;;;;;;;1.13;0.40;;;11.10;99.90;;;;;;5029662;28;20425;-67
2023/03/14 10:16:32;;;;;;;1.97;0.77;;;11.20;99.90;;;;;;5023407;28;20467;-67
2023/03/14 10:19:07;;;;;;;1.20;0.47;;;11.20;99.90;;;;;;5031487;28;20768;-67
2023/03/14 10:21:44;;;;;;;1.20;0.40;;;11.20;99.90;;;;;;5026143;28;20459;-67
2023/03/14 10:24:26;;;;;;;1.10;0.40;;;11.20;99.90;;;;;;5031501;28;20409;-67
2023/03/14 10:27:15;;;;;;;1.40;0.50;;;11.10;99.90;;;;;;5031237;28;20420;-67
2023/03/14 10:30:00;;;;;;;1.17;0.40;;;11.10;99.90;;;;;;5020651;28;20512;-67
2023/03/14 10:32:37;;;;;;;1.10;0.40;;;11.20;99.90;;;;;;5031339;28;20504;-67
2023/03/14 10:35:14;;;;;;;1.20;0.50;;;11.20;99.90;;;;;;5024974;28;20459;-67
2023/03/14 10:37:56;;;;;;;1.37;0.50;;;11.00;99.90;;;;;;5031032;28;20423;-67
2023/03/14 10:40:29;;;;;;;1.50;0.60;;;10.90;99.90;;;;;;5031227;28;20428;-67
2023/03/14 10:42:57;;;;;;;2.17;0.50;;;11.00;99.90;;;;;;5030598;28;20421;-67
2023/03/14 10:45:45;;;;;;;1.80;0.60;;;10.90;99.90;;;;;;5031547;28;20456;-67
2023/03/14 10:48:28;;;;;;;1.50;0.60;;;10.90;99.90;;;;;;5019548;28;20425;-67
2023/03/14 10:50:57;;;;;;;1.10;0.50;;;10.90;99.90;;;;;;5030398;28;20497;-67
2023/03/14 10:53:23;;;;;;;1.20;0.50;;;10.70;99.90;;;;;;5030687;28;20433;-67
2023/03/14 10:55:49;;;;;;;1.57;0.60;;;10.60;99.90;;;;;;5030795;28;20526;-67
2023/03/14 10:58:25;;;;;;;1.10;0.40;;;10.60;99.90;;;;;;5030771;28;20873;-67
2023/03/14 11:00:58;;;;;;;1.20;0.50;;;10.60;99.90;;;;;;5031141;28;20465;-67
2023/03/14 11:03:27;;;;;;;1.30;0.50;;;10.60;99.90;;;;;;5030191;28;20498;-67
2023/03/14 11:05:55;;;;;;;1.10;0.40;;;10.60;99.90;;;;;;5031006;28;20555;-67
2023/03/14 11:08:25;;;;;;;1.10;0.40;;;10.50;99.90;;;;;;5030513;28;20421;-67
2023/03/14 11:11:07;;;;;;;1.20;0.50;;;10.40;99.90;;;;;;5030709;28;20856;-67
2023/03/14 11:13:52;;;;;;;1.20;0.50;;;10.30;99.90;;;;;;5029606;28;20421;-67
2023/03/14 11:16:43;;;;;;;1.10;0.50;;;10.30;99.90;;;;;;5030789;28;20993;-67
2023/03/14 11:19:38;;;;;;;1.10;0.50;;;10.20;99.90;;;;;;5030486;28;20416;-67
2023/03/14 11:22:22;;;;;;;1.10;0.40;;;10.10;99.90;;;;;;5023449;28;20417;-67
2023/03/14 11:25:11;;;;;;;1.97;0.60;;;10.00;99.90;;;;;;5030633;28;20496;-67
2023/03/14 11:27:52;;;;;;;1.10;0.40;;;10.00;99.90;;;;;;5029976;28;20434;-67
2023/03/14 11:30:25;;;;;;;1.40;0.50;;;9.80;99.90;;;;;;5018310;28;20732;-64
2023/03/14 11:33:04;;;;;;;1.10;0.50;;;9.80;99.90;;;;;;5030051;28;20421;-65
2023/03/14 11:35:34;;;;;;;1.10;0.40;;;9.60;99.90;;;;;;5030889;28;20492;-66
2023/03/14 11:38:14;;;;;;;1.10;0.40;;;9.50;99.90;;;;;;5030095;28;20447;-65
2023/03/14 11:40:41;;;;;;;1.10;0.50;;;9.50;99.90;;;;;;5029970;28;20421;-66
2023/03/14 11:43:18;;;;;;;1.10;0.40;;;9.50;99.90;;;;;;5029382;28;20916;-65
2023/03/14 11:45:45;;;;;;;1.30;0.50;;;9.60;99.90;;;;;;5030393;28;20524;-66
2023/03/14 11:48:15;;;;;;;1.10;0.40;;;9.50;99.90;;;;;;5030545;28;20497;-65
2023/03/14 11:50:43;;;;;;;1.10;0.40;;;9.60;99.90;;;;;;5030209;28;20421;-65
2023/03/14 11:53:12;;;;;;;1.10;0.40;;;9.60;99.90;;;;;;5030109;28;20436;-64
2023/03/14 11:55:41;;;;;;;1.10;0.40;;;9.50;99.90;;;;;;5029432;28;20463;-65
2023/03/14 11:58:22;;;;;;;1.10;0.40;;;9.40;99.90;;;;;;5029813;28;20420;-65
2023/03/14 12:00:50;;;;;;;1.10;0.40;;;9.20;99.90;;;;;;5030609;28;20918;-66
2023/03/14 12:03:37;;;;;;;1.10;0.50;;;9.20;99.90;;;;;;5029792;28;20440;-66
2023/03/14 12:06:22;;;;;;;1.10;0.40;;;9.20;99.90;;;;;;5019023;28;20417;-66
2023/03/14 12:08:58;;;;;;;1.40;0.57;;;9.10;99.90;;;;;;5030708;28;20570;-66
2023/03/14 12:11:48;;;;;;;3.63;1.57;;;9.10;99.90;;;;;;5030088;28;20424;-66
2023/03/14 12:14:20;;;;;;;1.30;0.70;;;9.10;99.90;;;;;;5030579;28;20527;-66
2023/03/14 12:16:47;;;;;;;1.40;0.67;;;9.20;99.90;;;;;;5030958;28;20417;-66
2023/03/14 12:19:19;;;;;;;1.23;0.50;;;9.30;99.90;;;;;;5031814;28;20417;-66
2023/03/14 12:21:52;;;;;;;1.10;0.50;;;9.30;99.90;;;;;;5032698;28;20905;-66
2023/03/14 12:24:22;;;;;;;1.20;0.50;;;9.20;99.90;;;;;;5033264;28;20433;-65
2023/03/14 12:27:12;;;;;;;1.17;0.50;;;9.10;99.90;;;;;;5032653;28;20421;-65
2023/03/14 12:29:59;;;;;;;1.73;0.50;;;8.90;99.90;;;;;;5036472;28;20417;-65
2023/03/14 12:32:25;;;;;;;1.20;0.50;;;8.90;99.90;;;;;;5035119;28;20413;-66
2023/03/14 12:34:51;;;;;;;1.10;0.40;;;9.10;99.90;;;;;;5035308;28;20479;-65
2023/03/14 12:37:34;;;;;;;1.20;0.50;;;9.40;99.90;;;;;;5033255;28;20417;-66
2023/03/14 12:40:11;;;;;;;1.20;0.50;;;9.80;99.90;;;;;;5000374;28;20182;-67
2023/03/14 12:42:57;;;;;;;2.70;0.50;;;10.00;98.30;;;;;;5028015;28;20435;-66
2023/03/14 12:45:36;;;;;;;1.57;0.63;;;9.80;96.70;;;;;;5030815;28;20432;-66
2023/03/14 12:48:23;;;;;;;1.10;0.40;;;9.90;99.00;;;;;;5019015;28;20448;-65
2023/03/14 12:50:55;;;;;;;1.20;0.50;;;9.80;96.60;;;;;;5029854;28;20417;-67
2023/03/14 12:53:24;;;;;;;1.23;0.53;;;9.60;96.50;;;;;;5027260;28;20425;-67
2023/03/14 12:56:04;;;;;;;1.20;0.50;;;9.20;97.20;;;;;;5030207;28;20459;-67
2023/03/14 12:58:44;;;;;;;1.13;0.53;;;9.20;97.20;;;;;;5027279;28;20483;-67
2023/03/14 13:01:17;;;;;;;1.10;0.50;;;9.30;97.50;;;;;;5029490;28;20573;-67
2023/03/14 13:03:53;;;;;;;2.33;0.57;;;9.30;97.00;;;;;;5028940;28;20433;-67